sensor_id;sensor_type;location;lat;lon;timestamp;P1;durP1;ratioP1;P2;durP2;ratioP2
4420;SDS011;11824;51.178;13.546;2023-09-08T00:00:11;17.60;;;11.33;;
4420;SDS011;11824;51.178;13.546;2023-09-08T00:02:40;17.43;;;11.20;;
4420;SDS011;11824;51.178;13.546;2023-09-08T00:05:09;11.43;;;9.70;;
4420;SDS011;11824;51.178;13.546;2023-09-08T00:07:38;16.33;;;10.77;;
4420;SDS011;11824;51.178;13.546;2023-09-08T00:10:07;13.77;;;11.00;;
4420;SDS011;11824;51.178;13.546;2023-09-08T00:12:36;13.90;;;9.40;;
4420;SDS011;11824;51.178;13.546;2023-09-08T00:15:06;17.70;;;11.00;;
4420;SDS011;11824;51.178;13.546;2023-09-08T00:17:37;17.00;;;12.00;;
4420;SDS011;11824;51.178;13.546;2023-09-08T00:20:06;14.97;;;11.17;;
4420;SDS011;11824;51.178;13.546;2023-09-08T00:22:36;18.50;;;12.40;;
4420;SDS011;11824;51.178;13.546;2023-09-08T00:25:06;18.27;;;11.63;;
4420;SDS011;11824;51.178;13.546;2023-09-08T00:27:35;18.73;;;12.13;;
4420;SDS011;11824;51.178;13.546;2023-09-08T00:30:04;18.40;;;12.10;;
4420;SDS011;11824;51.178;13.546;2023-09-08T00:32:33;16.33;;;11.90;;
4420;SDS011;11824;51.178;13.546;2023-09-08T00:35:05;16.70;;;13.20;;
4420;SDS011;11824;51.178;13.546;2023-09-08T00:37:35;18.23;;;13.60;;
4420;SDS011;11824;51.178;13.546;2023-09-08T00:40:04;19.53;;;12.13;;
4420;SDS011;11824;51.178;13.546;2023-09-08T00:42:35;20.83;;;13.27;;
4420;SDS011;11824;51.178;13.546;2023-09-08T00:45:07;16.13;;;11.53;;
4420;SDS011;11824;51.178;13.546;2023-09-08T00:47:38;16.87;;;12.00;;
4420;SDS011;11824;51.178;13.546;2023-09-08T00:50:10;19.27;;;11.10;;
4420;SDS011;11824;51.178;13.546;2023-09-08T00:52:40;18.70;;;11.93;;
4420;SDS011;11824;51.178;13.546;2023-09-08T00:55:10;22.53;;;11.67;;
4420;SDS011;11824;51.178;13.546;2023-09-08T00:57:40;18.03;;;11.07;;
4420;SDS011;11824;51.178;13.546;2023-09-08T01:00:10;14.97;;;11.97;;
4420;SDS011;11824;51.178;13.546;2023-09-08T01:02:40;16.10;;;11.50;;
4420;SDS011;11824;51.178;13.546;2023-09-08T01:05:13;24.80;;;12.73;;
4420;SDS011;11824;51.178;13.546;2023-09-08T01:07:44;19.33;;;13.30;;
4420;SDS011;11824;51.178;13.546;2023-09-08T01:10:14;18.20;;;13.13;;
4420;SDS011;11824;51.178;13.546;2023-09-08T01:12:44;21.60;;;12.73;;
4420;SDS011;11824;51.178;13.546;2023-09-08T01:15:12;16.97;;;12.67;;
4420;SDS011;11824;51.178;13.546;2023-09-08T01:17:41;22.50;;;12.17;;
4420;SDS011;11824;51.178;13.546;2023-09-08T01:20:13;23.03;;;13.53;;
4420;SDS011;11824;51.178;13.546;2023-09-08T01:23:04;19.50;;;11.70;;
4420;SDS011;11824;51.178;13.546;2023-09-08T01:25:48;16.33;;;11.23;;
4420;SDS011;11824;51.178;13.546;2023-09-08T01:28:22;18.00;;;12.63;;
4420;SDS011;11824;51.178;13.546;2023-09-08T01:30:52;18.20;;;11.13;;
4420;SDS011;11824;51.178;13.546;2023-09-08T01:33:22;14.53;;;11.20;;
4420;SDS011;11824;51.178;13.546;2023-09-08T01:35:51;16.33;;;11.60;;
4420;SDS011;11824;51.178;13.546;2023-09-08T01:38:20;22.30;;;12.53;;
4420;SDS011;11824;51.178;13.546;2023-09-08T01:40:51;14.97;;;10.90;;
4420;SDS011;11824;51.178;13.546;2023-09-08T01:43:19;17.93;;;11.03;;
4420;SDS011;11824;51.178;13.546;2023-09-08T01:45:48;15.87;;;12.67;;
4420;SDS011;11824;51.178;13.546;2023-09-08T01:48:17;19.57;;;11.70;;
4420;SDS011;11824;51.178;13.546;2023-09-08T01:50:46;18.83;;;11.60;;
4420;SDS011;11824;51.178;13.546;2023-09-08T01:53:15;18.30;;;11.43;;
4420;SDS011;11824;51.178;13.546;2023-09-08T01:55:44;17.73;;;13.17;;
4420;SDS011;11824;51.178;13.546;2023-09-08T01:58:14;20.43;;;10.80;;
4420;SDS011;11824;51.178;13.546;2023-09-08T02:00:43;23.03;;;12.07;;
4420;SDS011;11824;51.178;13.546;2023-09-08T02:03:15;15.40;;;11.80;;
4420;SDS011;11824;51.178;13.546;2023-09-08T02:05:44;15.60;;;12.07;;
4420;SDS011;11824;51.178;13.546;2023-09-08T02:08:13;16.80;;;12.97;;
4420;SDS011;11824;51.178;13.546;2023-09-08T02:10:42;16.87;;;11.33;;
4420;SDS011;11824;51.178;13.546;2023-09-08T02:13:11;18.00;;;13.03;;
4420;SDS011;11824;51.178;13.546;2023-09-08T02:15:41;17.23;;;12.37;;
4420;SDS011;11824;51.178;13.546;2023-09-08T02:18:10;18.03;;;13.07;;
4420;SDS011;11824;51.178;13.546;2023-09-08T02:20:39;18.20;;;11.13;;
4420;SDS011;11824;51.178;13.546;2023-09-08T02:23:08;17.40;;;12.00;;
4420;SDS011;11824;51.178;13.546;2023-09-08T02:25:37;13.50;;;10.10;;
4420;SDS011;11824;51.178;13.546;2023-09-08T02:28:06;14.27;;;10.23;;
4420;SDS011;11824;51.178;13.546;2023-09-08T02:30:36;16.07;;;11.30;;
4420;SDS011;11824;51.178;13.546;2023-09-08T02:33:04;16.50;;;12.00;;
4420;SDS011;11824;51.178;13.546;2023-09-08T02:35:35;19.87;;;11.97;;
4420;SDS011;11824;51.178;13.546;2023-09-08T02:38:05;15.77;;;10.93;;
4420;SDS011;11824;51.178;13.546;2023-09-08T02:40:37;19.23;;;11.33;;
4420;SDS011;11824;51.178;13.546;2023-09-08T02:43:06;15.70;;;11.93;;
4420;SDS011;11824;51.178;13.546;2023-09-08T02:45:36;17.33;;;10.90;;
4420;SDS011;11824;51.178;13.546;2023-09-08T02:48:05;19.67;;;14.03;;
4420;SDS011;11824;51.178;13.546;2023-09-08T02:50:34;21.20;;;13.00;;
4420;SDS011;11824;51.178;13.546;2023-09-08T02:53:03;15.10;;;12.03;;
4420;SDS011;11824;51.178;13.546;2023-09-08T02:55:32;17.90;;;13.13;;
4420;SDS011;11824;51.178;13.546;2023-09-08T02:58:00;16.20;;;11.70;;
4420;SDS011;11824;51.178;13.546;2023-09-08T03:00:32;18.93;;;13.17;;
4420;SDS011;11824;51.178;13.546;2023-09-08T03:03:03;16.03;;;12.93;;
4420;SDS011;11824;51.178;13.546;2023-09-08T03:05:32;16.47;;;11.07;;
4420;SDS011;11824;51.178;13.546;2023-09-08T03:08:01;20.10;;;12.50;;
4420;SDS011;11824;51.178;13.546;2023-09-08T03:10:31;28.37;;;13.07;;
4420;SDS011;11824;51.178;13.546;2023-09-08T03:13:00;19.57;;;12.47;;
4420;SDS011;11824;51.178;13.546;2023-09-08T03:15:29;17.00;;;12.27;;
4420;SDS011;11824;51.178;13.546;2023-09-08T03:17:58;27.33;;;13.73;;
4420;SDS011;11824;51.178;13.546;2023-09-08T03:20:28;15.10;;;12.67;;
4420;SDS011;11824;51.178;13.546;2023-09-08T03:22:57;16.80;;;12.57;;
4420;SDS011;11824;51.178;13.546;2023-09-08T03:25:26;21.90;;;13.07;;
4420;SDS011;11824;51.178;13.546;2023-09-08T03:27:55;21.50;;;14.20;;
4420;SDS011;11824;51.178;13.546;2023-09-08T03:30:24;22.47;;;14.10;;
4420;SDS011;11824;51.178;13.546;2023-09-08T03:32:53;31.57;;;13.10;;
4420;SDS011;11824;51.178;13.546;2023-09-08T03:35:21;34.00;;;12.23;;
4420;SDS011;11824;51.178;13.546;2023-09-08T03:37:52;19.23;;;12.47;;
4420;SDS011;11824;51.178;13.546;2023-09-08T03:40:20;13.20;;;10.90;;
4420;SDS011;11824;51.178;13.546;2023-09-08T03:42:49;15.87;;;11.83;;
4420;SDS011;11824;51.178;13.546;2023-09-08T03:45:18;15.50;;;12.20;;
4420;SDS011;11824;51.178;13.546;2023-09-08T03:47:47;20.60;;;12.90;;
4420;SDS011;11824;51.178;13.546;2023-09-08T03:50:16;19.23;;;12.87;;
4420;SDS011;11824;51.178;13.546;2023-09-08T03:52:44;17.67;;;12.23;;
4420;SDS011;11824;51.178;13.546;2023-09-08T03:55:15;16.30;;;13.07;;
4420;SDS011;11824;51.178;13.546;2023-09-08T03:57:44;19.37;;;12.30;;
4420;SDS011;11824;51.178;13.546;2023-09-08T04:00:14;23.23;;;13.07;;
4420;SDS011;11824;51.178;13.546;2023-09-08T04:02:48;14.90;;;11.03;;
4420;SDS011;11824;51.178;13.546;2023-09-08T04:05:17;15.83;;;12.60;;
4420;SDS011;11824;51.178;13.546;2023-09-08T04:07:47;18.70;;;10.47;;
4420;SDS011;11824;51.178;13.546;2023-09-08T04:10:17;17.43;;;12.10;;
4420;SDS011;11824;51.178;13.546;2023-09-08T04:12:45;18.23;;;13.13;;
4420;SDS011;11824;51.178;13.546;2023-09-08T04:15:14;18.00;;;13.27;;
4420;SDS011;11824;51.178;13.546;2023-09-08T04:17:43;17.20;;;13.10;;
4420;SDS011;11824;51.178;13.546;2023-09-08T04:20:13;24.53;;;13.30;;
4420;SDS011;11824;51.178;13.546;2023-09-08T04:22:42;21.13;;;13.10;;
4420;SDS011;11824;51.178;13.546;2023-09-08T04:25:11;17.73;;;12.87;;
4420;SDS011;11824;51.178;13.546;2023-09-08T04:27:41;29.30;;;14.00;;
4420;SDS011;11824;51.178;13.546;2023-09-08T04:30:11;19.90;;;12.83;;
4420;SDS011;11824;51.178;13.546;2023-09-08T04:32:41;19.83;;;13.47;;
4420;SDS011;11824;51.178;13.546;2023-09-08T04:35:10;21.00;;;13.33;;
4420;SDS011;11824;51.178;13.546;2023-09-08T04:37:39;17.50;;;12.13;;
4420;SDS011;11824;51.178;13.546;2023-09-08T04:40:08;18.20;;;13.10;;
4420;SDS011;11824;51.178;13.546;2023-09-08T04:42:39;16.37;;;11.83;;
4420;SDS011;11824;51.178;13.546;2023-09-08T04:45:09;19.93;;;13.17;;
4420;SDS011;11824;51.178;13.546;2023-09-08T04:47:38;31.07;;;13.37;;
4420;SDS011;11824;51.178;13.546;2023-09-08T04:50:07;19.13;;;13.23;;
4420;SDS011;11824;51.178;13.546;2023-09-08T04:52:36;27.07;;;14.23;;
4420;SDS011;11824;51.178;13.546;2023-09-08T04:55:06;16.10;;;12.80;;
4420;SDS011;11824;51.178;13.546;2023-09-08T04:57:35;22.80;;;13.93;;
4420;SDS011;11824;51.178;13.546;2023-09-08T05:00:06;23.83;;;12.77;;
4420;SDS011;11824;51.178;13.546;2023-09-08T05:02:35;26.27;;;14.13;;
4420;SDS011;11824;51.178;13.546;2023-09-08T05:05:04;19.83;;;13.23;;
4420;SDS011;11824;51.178;13.546;2023-09-08T05:07:33;20.60;;;13.67;;
4420;SDS011;11824;51.178;13.546;2023-09-08T05:10:02;20.37;;;13.43;;
4420;SDS011;11824;51.178;13.546;2023-09-08T05:12:31;19.10;;;14.30;;
4420;SDS011;11824;51.178;13.546;2023-09-08T05:15:01;18.37;;;14.10;;
4420;SDS011;11824;51.178;13.546;2023-09-08T05:17:34;30.13;;;14.97;;
4420;SDS011;11824;51.178;13.546;2023-09-08T05:20:04;30.90;;;15.00;;
4420;SDS011;11824;51.178;13.546;2023-09-08T05:22:33;31.13;;;14.00;;
4420;SDS011;11824;51.178;13.546;2023-09-08T05:25:03;35.53;;;13.37;;
4420;SDS011;11824;51.178;13.546;2023-09-08T05:27:32;35.60;;;14.37;;
4420;SDS011;11824;51.178;13.546;2023-09-08T05:30:01;21.70;;;13.67;;
4420;SDS011;11824;51.178;13.546;2023-09-08T05:32:29;20.00;;;12.70;;
4420;SDS011;11824;51.178;13.546;2023-09-08T05:35:03;21.67;;;11.83;;
4420;SDS011;11824;51.178;13.546;2023-09-08T05:37:32;27.37;;;11.30;;
4420;SDS011;11824;51.178;13.546;2023-09-08T05:40:01;22.00;;;11.27;;
4420;SDS011;11824;51.178;13.546;2023-09-08T05:42:31;14.63;;;10.23;;
4420;SDS011;11824;51.178;13.546;2023-09-08T05:45:00;16.33;;;10.17;;
4420;SDS011;11824;51.178;13.546;2023-09-08T05:47:29;15.80;;;10.10;;
4420;SDS011;11824;51.178;13.546;2023-09-08T05:49:57;14.87;;;10.17;;
4420;SDS011;11824;51.178;13.546;2023-09-08T05:52:27;16.60;;;10.40;;
4420;SDS011;11824;51.178;13.546;2023-09-08T05:54:59;18.30;;;10.50;;
4420;SDS011;11824;51.178;13.546;2023-09-08T05:57:29;22.20;;;10.63;;
4420;SDS011;11824;51.178;13.546;2023-09-08T05:59:58;20.40;;;9.60;;
4420;SDS011;11824;51.178;13.546;2023-09-08T06:02:27;16.00;;;10.70;;
4420;SDS011;11824;51.178;13.546;2023-09-08T06:04:55;22.60;;;11.00;;
4420;SDS011;11824;51.178;13.546;2023-09-08T06:07:24;17.40;;;10.53;;
4420;SDS011;11824;51.178;13.546;2023-09-08T06:09:54;20.40;;;10.97;;
4420;SDS011;11824;51.178;13.546;2023-09-08T06:12:23;17.57;;;10.20;;
4420;SDS011;11824;51.178;13.546;2023-09-08T06:14:52;16.83;;;11.30;;
4420;SDS011;11824;51.178;13.546;2023-09-08T06:17:21;28.00;;;13.57;;
4420;SDS011;11824;51.178;13.546;2023-09-08T06:19:50;27.13;;;12.27;;
4420;SDS011;11824;51.178;13.546;2023-09-08T06:22:19;23.00;;;12.07;;
4420;SDS011;11824;51.178;13.546;2023-09-08T06:24:52;26.13;;;11.00;;
4420;SDS011;11824;51.178;13.546;2023-09-08T06:27:23;13.57;;;9.90;;
4420;SDS011;11824;51.178;13.546;2023-09-08T06:29:53;20.57;;;10.07;;
4420;SDS011;11824;51.178;13.546;2023-09-08T06:32:23;17.73;;;9.83;;
4420;SDS011;11824;51.178;13.546;2023-09-08T06:34:53;19.27;;;9.40;;
4420;SDS011;11824;51.178;13.546;2023-09-08T06:37:22;17.60;;;8.97;;
4420;SDS011;11824;51.178;13.546;2023-09-08T06:39:56;21.57;;;9.13;;
4420;SDS011;11824;51.178;13.546;2023-09-08T06:42:27;22.10;;;8.23;;
4420;SDS011;11824;51.178;13.546;2023-09-08T06:44:57;20.03;;;9.43;;
4420;SDS011;11824;51.178;13.546;2023-09-08T06:47:30;16.17;;;8.20;;
4420;SDS011;11824;51.178;13.546;2023-09-08T06:49:59;9.73;;;7.50;;
4420;SDS011;11824;51.178;13.546;2023-09-08T06:52:28;15.00;;;8.20;;
4420;SDS011;11824;51.178;13.546;2023-09-08T06:55:01;11.03;;;8.23;;
4420;SDS011;11824;51.178;13.546;2023-09-08T06:57:31;10.40;;;8.00;;
4420;SDS011;11824;51.178;13.546;2023-09-08T07:00:00;15.50;;;8.80;;
4420;SDS011;11824;51.178;13.546;2023-09-08T07:02:33;15.47;;;7.80;;
4420;SDS011;11824;51.178;13.546;2023-09-08T07:05:05;22.30;;;9.03;;
4420;SDS011;11824;51.178;13.546;2023-09-08T07:07:35;20.57;;;9.37;;
4420;SDS011;11824;51.178;13.546;2023-09-08T07:10:06;16.50;;;8.43;;
4420;SDS011;11824;51.178;13.546;2023-09-08T07:12:36;13.63;;;9.07;;
4420;SDS011;11824;51.178;13.546;2023-09-08T07:15:05;14.00;;;8.63;;
4420;SDS011;11824;51.178;13.546;2023-09-08T07:17:34;10.00;;;8.57;;
4420;SDS011;11824;51.178;13.546;2023-09-08T07:20:04;11.60;;;8.00;;
4420;SDS011;11824;51.178;13.546;2023-09-08T07:22:33;12.60;;;7.50;;
4420;SDS011;11824;51.178;13.546;2023-09-08T07:25:02;14.00;;;8.47;;
4420;SDS011;11824;51.178;13.546;2023-09-08T07:27:34;17.10;;;9.20;;
4420;SDS011;11824;51.178;13.546;2023-09-08T07:30:03;20.73;;;8.83;;
4420;SDS011;11824;51.178;13.546;2023-09-08T07:32:33;22.97;;;8.53;;
4420;SDS011;11824;51.178;13.546;2023-09-08T07:35:02;11.80;;;8.27;;
4420;SDS011;11824;51.178;13.546;2023-09-08T07:37:31;11.63;;;7.50;;
4420;SDS011;11824;51.178;13.546;2023-09-08T07:40:00;10.50;;;8.20;;
4420;SDS011;11824;51.178;13.546;2023-09-08T07:42:30;18.00;;;7.80;;
4420;SDS011;11824;51.178;13.546;2023-09-08T07:44:59;11.13;;;8.13;;
4420;SDS011;11824;51.178;13.546;2023-09-08T07:47:28;16.57;;;7.47;;
4420;SDS011;11824;51.178;13.546;2023-09-08T07:52:44;11.10;;;7.57;;
4420;SDS011;11824;51.178;13.546;2023-09-08T07:55:13;10.57;;;7.90;;
4420;SDS011;11824;51.178;13.546;2023-09-08T07:57:43;16.47;;;8.00;;
4420;SDS011;11824;51.178;13.546;2023-09-08T08:00:13;8.73;;;6.90;;
4420;SDS011;11824;51.178;13.546;2023-09-08T08:02:46;15.43;;;8.00;;
4420;SDS011;11824;51.178;13.546;2023-09-08T08:05:16;18.20;;;7.77;;
4420;SDS011;11824;51.178;13.546;2023-09-08T08:07:45;12.47;;;7.67;;
4420;SDS011;11824;51.178;13.546;2023-09-08T08:10:15;12.43;;;6.50;;
4420;SDS011;11824;51.178;13.546;2023-09-08T08:12:45;11.60;;;7.50;;
4420;SDS011;11824;51.178;13.546;2023-09-08T08:15:14;14.40;;;8.03;;
4420;SDS011;11824;51.178;13.546;2023-09-08T08:17:43;10.60;;;7.00;;
4420;SDS011;11824;51.178;13.546;2023-09-08T08:20:12;8.93;;;7.00;;
4420;SDS011;11824;51.178;13.546;2023-09-08T08:22:44;9.33;;;6.70;;
4420;SDS011;11824;51.178;13.546;2023-09-08T08:25:14;13.10;;;7.67;;
4420;SDS011;11824;51.178;13.546;2023-09-08T08:27:44;9.47;;;6.47;;
4420;SDS011;11824;51.178;13.546;2023-09-08T08:30:13;10.03;;;7.10;;
4420;SDS011;11824;51.178;13.546;2023-09-08T08:32:42;9.00;;;6.33;;
4420;SDS011;11824;51.178;13.546;2023-09-08T08:35:12;7.60;;;6.03;;
4420;SDS011;11824;51.178;13.546;2023-09-08T08:37:41;18.83;;;6.60;;
4420;SDS011;11824;51.178;13.546;2023-09-08T08:40:10;11.60;;;6.97;;
4420;SDS011;11824;51.178;13.546;2023-09-08T08:42:41;9.03;;;6.27;;
4420;SDS011;11824;51.178;13.546;2023-09-08T08:45:12;10.43;;;6.83;;
4420;SDS011;11824;51.178;13.546;2023-09-08T08:47:41;8.50;;;6.50;;
4420;SDS011;11824;51.178;13.546;2023-09-08T08:50:11;7.10;;;6.40;;
4420;SDS011;11824;51.178;13.546;2023-09-08T08:52:41;8.70;;;7.23;;
4420;SDS011;11824;51.178;13.546;2023-09-08T08:55:11;10.53;;;6.40;;
4420;SDS011;11824;51.178;13.546;2023-09-08T08:57:41;15.83;;;7.27;;
4420;SDS011;11824;51.178;13.546;2023-09-08T09:00:12;8.70;;;6.70;;
4420;SDS011;11824;51.178;13.546;2023-09-08T09:02:44;8.97;;;6.53;;
4420;SDS011;11824;51.178;13.546;2023-09-08T09:05:16;7.63;;;6.20;;
4420;SDS011;11824;51.178;13.546;2023-09-08T09:07:45;8.30;;;6.80;;
4420;SDS011;11824;51.178;13.546;2023-09-08T09:10:15;10.53;;;6.60;;
4420;SDS011;11824;51.178;13.546;2023-09-08T09:12:44;9.63;;;6.83;;
4420;SDS011;11824;51.178;13.546;2023-09-08T09:15:14;8.00;;;6.20;;
4420;SDS011;11824;51.178;13.546;2023-09-08T09:17:44;10.53;;;6.63;;
4420;SDS011;11824;51.178;13.546;2023-09-08T09:20:31;7.10;;;5.77;;
4420;SDS011;11824;51.178;13.546;2023-09-08T09:23:00;10.20;;;5.90;;
4420;SDS011;11824;51.178;13.546;2023-09-08T09:25:30;7.80;;;6.60;;
4420;SDS011;11824;51.178;13.546;2023-09-08T09:28:00;10.73;;;6.23;;
4420;SDS011;11824;51.178;13.546;2023-09-08T09:33:22;8.80;;;5.70;;
4420;SDS011;11824;51.178;13.546;2023-09-08T09:35:52;11.53;;;6.30;;
4420;SDS011;11824;51.178;13.546;2023-09-08T09:38:21;11.80;;;5.97;;
4420;SDS011;11824;51.178;13.546;2023-09-08T09:40:53;11.10;;;6.43;;
4420;SDS011;11824;51.178;13.546;2023-09-08T09:43:22;10.80;;;6.73;;
4420;SDS011;11824;51.178;13.546;2023-09-08T09:45:52;9.47;;;5.20;;
4420;SDS011;11824;51.178;13.546;2023-09-08T09:48:23;6.60;;;5.27;;
4420;SDS011;11824;51.178;13.546;2023-09-08T09:50:52;9.10;;;5.73;;
4420;SDS011;11824;51.178;13.546;2023-09-08T09:53:21;7.40;;;6.40;;
4420;SDS011;11824;51.178;13.546;2023-09-08T09:55:51;9.40;;;5.90;;
4420;SDS011;11824;51.178;13.546;2023-09-08T09:58:20;11.77;;;6.00;;
4420;SDS011;11824;51.178;13.546;2023-09-08T10:00:50;10.07;;;6.30;;
4420;SDS011;11824;51.178;13.546;2023-09-08T10:03:20;11.20;;;5.33;;
4420;SDS011;11824;51.178;13.546;2023-09-08T10:05:52;16.27;;;6.10;;
4420;SDS011;11824;51.178;13.546;2023-09-08T10:08:21;10.73;;;6.20;;
4420;SDS011;11824;51.178;13.546;2023-09-08T10:10:51;10.30;;;5.60;;
4420;SDS011;11824;51.178;13.546;2023-09-08T10:13:23;11.63;;;5.60;;
4420;SDS011;11824;51.178;13.546;2023-09-08T10:15:55;6.90;;;4.90;;
4420;SDS011;11824;51.178;13.546;2023-09-08T10:18:27;8.77;;;5.00;;
4420;SDS011;11824;51.178;13.546;2023-09-08T10:20:58;8.30;;;6.50;;
4420;SDS011;11824;51.178;13.546;2023-09-08T10:23:33;10.43;;;4.93;;
4420;SDS011;11824;51.178;13.546;2023-09-08T10:26:06;10.40;;;5.73;;
4420;SDS011;11824;51.178;13.546;2023-09-08T10:28:38;9.37;;;5.23;;
4420;SDS011;11824;51.178;13.546;2023-09-08T10:31:07;6.87;;;5.40;;
4420;SDS011;11824;51.178;13.546;2023-09-08T10:33:42;6.40;;;4.93;;
4420;SDS011;11824;51.178;13.546;2023-09-08T10:36:12;6.90;;;4.83;;
4420;SDS011;11824;51.178;13.546;2023-09-08T10:38:41;5.80;;;5.30;;
4420;SDS011;11824;51.178;13.546;2023-09-08T10:41:26;10.47;;;4.60;;
4420;SDS011;11824;51.178;13.546;2023-09-08T10:44:06;6.17;;;4.60;;
4420;SDS011;11824;51.178;13.546;2023-09-08T10:46:35;7.80;;;5.00;;
4420;SDS011;11824;51.178;13.546;2023-09-08T10:49:06;6.20;;;4.93;;
4420;SDS011;11824;51.178;13.546;2023-09-08T10:51:36;5.97;;;4.43;;
4420;SDS011;11824;51.178;13.546;2023-09-08T10:54:06;6.37;;;4.20;;
4420;SDS011;11824;51.178;13.546;2023-09-08T10:56:47;9.27;;;5.00;;
4420;SDS011;11824;51.178;13.546;2023-09-08T10:59:22;6.60;;;5.10;;
4420;SDS011;11824;51.178;13.546;2023-09-08T11:01:55;9.50;;;4.87;;
4420;SDS011;11824;51.178;13.546;2023-09-08T11:04:25;8.83;;;4.63;;
4420;SDS011;11824;51.178;13.546;2023-09-08T11:06:59;10.63;;;5.00;;
4420;SDS011;11824;51.178;13.546;2023-09-08T11:09:29;5.67;;;5.07;;
4420;SDS011;11824;51.178;13.546;2023-09-08T11:12:04;7.33;;;5.07;;
4420;SDS011;11824;51.178;13.546;2023-09-08T11:14:34;4.87;;;4.37;;
4420;SDS011;11824;51.178;13.546;2023-09-08T11:17:03;7.70;;;4.90;;
4420;SDS011;11824;51.178;13.546;2023-09-08T11:19:44;5.57;;;4.13;;
4420;SDS011;11824;51.178;13.546;2023-09-08T11:22:14;4.97;;;4.07;;
4420;SDS011;11824;51.178;13.546;2023-09-08T11:24:44;9.60;;;4.60;;
4420;SDS011;11824;51.178;13.546;2023-09-08T11:27:13;9.70;;;5.40;;
4420;SDS011;11824;51.178;13.546;2023-09-08T11:29:42;5.87;;;4.87;;
4420;SDS011;11824;51.178;13.546;2023-09-08T11:32:11;4.73;;;4.23;;
4420;SDS011;11824;51.178;13.546;2023-09-08T11:34:40;12.77;;;4.80;;
4420;SDS011;11824;51.178;13.546;2023-09-08T11:37:11;11.20;;;4.47;;
4420;SDS011;11824;51.178;13.546;2023-09-08T11:39:42;6.60;;;4.70;;
4420;SDS011;11824;51.178;13.546;2023-09-08T11:42:12;5.50;;;4.20;;
4420;SDS011;11824;51.178;13.546;2023-09-08T11:44:42;7.80;;;3.93;;
4420;SDS011;11824;51.178;13.546;2023-09-08T11:47:12;5.07;;;4.40;;
4420;SDS011;11824;51.178;13.546;2023-09-08T11:49:42;5.27;;;4.23;;
4420;SDS011;11824;51.178;13.546;2023-09-08T11:52:13;11.43;;;4.00;;
4420;SDS011;11824;51.178;13.546;2023-09-08T11:54:42;5.90;;;4.23;;
4420;SDS011;11824;51.178;13.546;2023-09-08T11:57:30;5.53;;;4.27;;
4420;SDS011;11824;51.178;13.546;2023-09-08T12:00:00;5.13;;;3.60;;
4420;SDS011;11824;51.178;13.546;2023-09-08T12:02:33;8.37;;;4.53;;
4420;SDS011;11824;51.178;13.546;2023-09-08T12:05:03;6.53;;;4.30;;
4420;SDS011;11824;51.178;13.546;2023-09-08T12:07:33;9.37;;;5.00;;
4420;SDS011;11824;51.178;13.546;2023-09-08T12:10:06;7.23;;;4.50;;
4420;SDS011;11824;51.178;13.546;2023-09-08T12:12:43;5.93;;;4.00;;
4420;SDS011;11824;51.178;13.546;2023-09-08T12:18:00;7.03;;;4.70;;
4420;SDS011;11824;51.178;13.546;2023-09-08T12:20:29;7.60;;;4.70;;
4420;SDS011;11824;51.178;13.546;2023-09-08T12:23:01;7.50;;;4.20;;
4420;SDS011;11824;51.178;13.546;2023-09-08T12:25:30;6.73;;;4.77;;
4420;SDS011;11824;51.178;13.546;2023-09-08T12:28:04;9.50;;;4.30;;
4420;SDS011;11824;51.178;13.546;2023-09-08T12:30:33;9.03;;;5.60;;
4420;SDS011;11824;51.178;13.546;2023-09-08T12:33:01;9.20;;;4.53;;
4420;SDS011;11824;51.178;13.546;2023-09-08T12:35:30;7.83;;;4.90;;
4420;SDS011;11824;51.178;13.546;2023-09-08T12:38:01;6.90;;;4.67;;
4420;SDS011;11824;51.178;13.546;2023-09-08T12:40:33;9.90;;;4.00;;
4420;SDS011;11824;51.178;13.546;2023-09-08T12:43:03;6.93;;;4.20;;
4420;SDS011;11824;51.178;13.546;2023-09-08T12:45:52;5.20;;;4.63;;
4420;SDS011;11824;51.178;13.546;2023-09-08T12:48:21;9.77;;;5.57;;
4420;SDS011;11824;51.178;13.546;2023-09-08T12:50:50;8.03;;;4.83;;
4420;SDS011;11824;51.178;13.546;2023-09-08T12:53:20;6.60;;;5.03;;
4420;SDS011;11824;51.178;13.546;2023-09-08T12:55:50;4.73;;;4.23;;
4420;SDS011;11824;51.178;13.546;2023-09-08T12:58:18;6.60;;;4.77;;
4420;SDS011;11824;51.178;13.546;2023-09-08T13:00:47;5.00;;;4.43;;
4420;SDS011;11824;51.178;13.546;2023-09-08T13:03:16;7.97;;;3.73;;
4420;SDS011;11824;51.178;13.546;2023-09-08T13:05:45;6.27;;;4.60;;
4420;SDS011;11824;51.178;13.546;2023-09-08T13:08:14;4.90;;;4.40;;
4420;SDS011;11824;51.178;13.546;2023-09-08T13:10:44;5.00;;;4.10;;
4420;SDS011;11824;51.178;13.546;2023-09-08T13:13:13;8.00;;;5.00;;
4420;SDS011;11824;51.178;13.546;2023-09-08T13:15:42;4.80;;;3.90;;
4420;SDS011;11824;51.178;13.546;2023-09-08T13:18:11;6.50;;;4.77;;
4420;SDS011;11824;51.178;13.546;2023-09-08T13:20:40;9.80;;;4.80;;
4420;SDS011;11824;51.178;13.546;2023-09-08T13:23:08;5.63;;;4.13;;
4420;SDS011;11824;51.178;13.546;2023-09-08T13:25:37;5.50;;;4.23;;
4420;SDS011;11824;51.178;13.546;2023-09-08T13:28:09;5.77;;;4.27;;
4420;SDS011;11824;51.178;13.546;2023-09-08T13:30:38;7.00;;;4.77;;
4420;SDS011;11824;51.178;13.546;2023-09-08T13:33:08;5.70;;;4.87;;
4420;SDS011;11824;51.178;13.546;2023-09-08T13:35:37;12.83;;;4.30;;
4420;SDS011;11824;51.178;13.546;2023-09-08T13:38:06;10.67;;;4.50;;
4420;SDS011;11824;51.178;13.546;2023-09-08T13:40:35;7.07;;;4.47;;
4420;SDS011;11824;51.178;13.546;2023-09-08T13:43:04;7.10;;;4.30;;
4420;SDS011;11824;51.178;13.546;2023-09-08T13:45:35;5.30;;;4.30;;
4420;SDS011;11824;51.178;13.546;2023-09-08T13:48:04;7.93;;;4.53;;
4420;SDS011;11824;51.178;13.546;2023-09-08T13:50:37;4.10;;;3.70;;
4420;SDS011;11824;51.178;13.546;2023-09-08T13:53:09;7.13;;;5.47;;
4420;SDS011;11824;51.178;13.546;2023-09-08T13:55:40;6.57;;;4.97;;
4420;SDS011;11824;51.178;13.546;2023-09-08T13:58:10;18.03;;;5.90;;
4420;SDS011;11824;51.178;13.546;2023-09-08T14:00:41;7.00;;;4.63;;
4420;SDS011;11824;51.178;13.546;2023-09-08T14:03:13;14.70;;;5.00;;
4420;SDS011;11824;51.178;13.546;2023-09-08T14:05:47;5.47;;;4.70;;
4420;SDS011;11824;51.178;13.546;2023-09-08T14:08:20;8.47;;;5.20;;
4420;SDS011;11824;51.178;13.546;2023-09-08T14:10:52;5.90;;;4.70;;
4420;SDS011;11824;51.178;13.546;2023-09-08T14:13:24;8.33;;;4.50;;
4420;SDS011;11824;51.178;13.546;2023-09-08T14:15:54;9.27;;;4.70;;
4420;SDS011;11824;51.178;13.546;2023-09-08T14:18:26;5.77;;;4.30;;
4420;SDS011;11824;51.178;13.546;2023-09-08T14:20:55;5.07;;;4.57;;
4420;SDS011;11824;51.178;13.546;2023-09-08T14:23:24;7.43;;;5.00;;
4420;SDS011;11824;51.178;13.546;2023-09-08T14:25:55;7.50;;;4.83;;
4420;SDS011;11824;51.178;13.546;2023-09-08T14:28:24;4.97;;;4.50;;
4420;SDS011;11824;51.178;13.546;2023-09-08T14:30:54;7.50;;;5.83;;
4420;SDS011;11824;51.178;13.546;2023-09-08T14:33:23;5.90;;;4.80;;
4420;SDS011;11824;51.178;13.546;2023-09-08T14:35:52;11.67;;;4.90;;
4420;SDS011;11824;51.178;13.546;2023-09-08T14:38:22;7.47;;;5.13;;
4420;SDS011;11824;51.178;13.546;2023-09-08T14:40:55;8.60;;;5.07;;
4420;SDS011;11824;51.178;13.546;2023-09-08T14:43:25;6.87;;;4.40;;
4420;SDS011;11824;51.178;13.546;2023-09-08T14:45:55;5.10;;;4.10;;
4420;SDS011;11824;51.178;13.546;2023-09-08T14:48:24;6.43;;;4.97;;
4420;SDS011;11824;51.178;13.546;2023-09-08T14:50:53;9.60;;;5.27;;
4420;SDS011;11824;51.178;13.546;2023-09-08T14:53:23;6.00;;;4.30;;
4420;SDS011;11824;51.178;13.546;2023-09-08T14:55:51;6.37;;;4.07;;
4420;SDS011;11824;51.178;13.546;2023-09-08T14:58:24;7.83;;;4.80;;